sensor_id;sensor_type;location;lat;lon;timestamp;temperature;humidity
3492;DHT22;1760;52.480;13.422;2024-03-02T00:01:46;10.30;99.90
3492;DHT22;1760;52.480;13.422;2024-03-02T00:04:13;10.30;99.90
3492;DHT22;1760;52.480;13.422;2024-03-02T00:06:40;10.30;99.90
3492;DHT22;1760;52.480;13.422;2024-03-02T00:09:09;10.30;99.90
3492;DHT22;1760;52.480;13.422;2024-03-02T00:11:38;10.30;99.90
3492;DHT22;1760;52.480;13.422;2024-03-02T00:14:06;10.40;99.90
3492;DHT22;1760;52.480;13.422;2024-03-02T00:16:33;10.40;99.90
3492;DHT22;1760;52.480;13.422;2024-03-02T00:19:05;10.30;99.90
3492;DHT22;1760;52.480;13.422;2024-03-02T00:21:33;10.30;99.90
3492;DHT22;1760;52.480;13.422;2024-03-02T00:24:02;10.30;99.90
3492;DHT22;1760;52.480;13.422;2024-03-02T00:26:31;10.40;99.90
3492;DHT22;1760;52.480;13.422;2024-03-02T00:28:59;10.40;99.90
3492;DHT22;1760;52.480;13.422;2024-03-02T00:31:26;10.40;99.90
3492;DHT22;1760;52.480;13.422;2024-03-02T00:33:53;10.40;99.90
3492;DHT22;1760;52.480;13.422;2024-03-02T00:36:26;10.50;99.90
3492;DHT22;1760;52.480;13.422;2024-03-02T00:38:54;10.50;99.90
3492;DHT22;1760;52.480;13.422;2024-03-02T00:41:23;10.50;99.90
3492;DHT22;1760;52.480;13.422;2024-03-02T00:43:58;10.50;99.90
3492;DHT22;1760;52.480;13.422;2024-03-02T00:46:27;10.50;99.90
3492;DHT22;1760;52.480;13.422;2024-03-02T00:48:56;10.50;99.90
3492;DHT22;1760;52.480;13.422;2024-03-02T00:51:26;10.40;99.90
3492;DHT22;1760;52.480;13.422;2024-03-02T00:53:55;10.40;99.90
3492;DHT22;1760;52.480;13.422;2024-03-02T00:56:23;10.40;99.90
3492;DHT22;1760;52.480;13.422;2024-03-02T00:58:50;10.40;99.90
3492;DHT22;1760;52.480;13.422;2024-03-02T01:01:17;10.40;99.90
3492;DHT22;1760;52.480;13.422;2024-03-02T01:03:45;10.40;99.90
3492;DHT22;1760;52.480;13.422;2024-03-02T01:06:12;10.40;99.90
3492;DHT22;1760;52.480;13.422;2024-03-02T01:08:40;10.40;99.90
3492;DHT22;1760;52.480;13.422;2024-03-02T01:11:07;10.40;99.90
3492;DHT22;1760;52.480;13.422;2024-03-02T01:13:34;10.40;99.90
3492;DHT22;1760;52.480;13.422;2024-03-02T01:16:01;10.40;99.90
3492;DHT22;1760;52.480;13.422;2024-03-02T01:18:29;10.40;99.90
3492;DHT22;1760;52.480;13.422;2024-03-02T01:20:57;10.40;99.90
3492;DHT22;1760;52.480;13.422;2024-03-02T01:23:24;10.40;99.90
3492;DHT22;1760;52.480;13.422;2024-03-02T01:25:53;10.40;99.90
3492;DHT22;1760;52.480;13.422;2024-03-02T01:28:20;10.40;99.90
3492;DHT22;1760;52.480;13.422;2024-03-02T01:30:48;10.30;99.90
3492;DHT22;1760;52.480;13.422;2024-03-02T01:33:15;10.30;99.90
3492;DHT22;1760;52.480;13.422;2024-03-02T01:35:43;10.30;99.90
3492;DHT22;1760;52.480;13.422;2024-03-02T01:38:10;10.30;99.90
3492;DHT22;1760;52.480;13.422;2024-03-02T01:40:37;10.30;99.90
3492;DHT22;1760;52.480;13.422;2024-03-02T01:43:06;10.30;99.90
3492;DHT22;1760;52.480;13.422;2024-03-02T01:45:33;10.30;99.90
3492;DHT22;1760;52.480;13.422;2024-03-02T01:48:01;10.30;99.90
3492;DHT22;1760;52.480;13.422;2024-03-02T01:50:29;10.30;99.90
3492;DHT22;1760;52.480;13.422;2024-03-02T01:52:56;10.30;99.90
3492;DHT22;1760;52.480;13.422;2024-03-02T01:55:23;10.30;99.90
3492;DHT22;1760;52.480;13.422;2024-03-02T01:57:51;10.20;99.90
3492;DHT22;1760;52.480;13.422;2024-03-02T02:00:21;10.20;99.90
3492;DHT22;1760;52.480;13.422;2024-03-02T02:02:50;10.30;99.90
3492;DHT22;1760;52.480;13.422;2024-03-02T02:05:17;10.20;99.90
3492;DHT22;1760;52.480;13.422;2024-03-02T02:07:44;10.20;99.90
3492;DHT22;1760;52.480;13.422;2024-03-02T02:10:12;10.20;99.90
3492;DHT22;1760;52.480;13.422;2024-03-02T02:12:40;10.20;99.90
3492;DHT22;1760;52.480;13.422;2024-03-02T02:28:30;10.30;99.90
3492;DHT22;1760;52.480;13.422;2024-03-02T02:30:57;10.00;99.90
3492;DHT22;1760;52.480;13.422;2024-03-02T02:33:25;10.00;99.90
3492;DHT22;1760;52.480;13.422;2024-03-02T02:35:52;10.10;99.90
3492;DHT22;1760;52.480;13.422;2024-03-02T02:38:19;10.10;99.90
3492;DHT22;1760;52.480;13.422;2024-03-02T02:40:46;10.10;99.90
3492;DHT22;1760;52.480;13.422;2024-03-02T02:43:13;10.10;99.90
3492;DHT22;1760;52.480;13.422;2024-03-02T02:45:41;10.10;99.90
3492;DHT22;1760;52.480;13.422;2024-03-02T02:48:08;10.10;99.90
3492;DHT22;1760;52.480;13.422;2024-03-02T02:50:35;10.10;99.90
3492;DHT22;1760;52.480;13.422;2024-03-02T02:53:02;10.10;99.90
3492;DHT22;1760;52.480;13.422;2024-03-02T02:55:29;10.10;99.90
3492;DHT22;1760;52.480;13.422;2024-03-02T02:57:56;10.10;99.90
3492;DHT22;1760;52.480;13.422;2024-03-02T03:00:23;10.10;99.90
3492;DHT22;1760;52.480;13.422;2024-03-02T03:02:51;10.10;99.90
3492;DHT22;1760;52.480;13.422;2024-03-02T03:05:18;10.20;99.90
3492;DHT22;1760;52.480;13.422;2024-03-02T03:07:45;10.20;99.90
3492;DHT22;1760;52.480;13.422;2024-03-02T03:10:13;10.20;99.90
3492;DHT22;1760;52.480;13.422;2024-03-02T03:12:40;10.20;99.90
3492;DHT22;1760;52.480;13.422;2024-03-02T03:15:09;10.20;99.90
3492;DHT22;1760;52.480;13.422;2024-03-02T03:17:37;10.20;99.90
3492;DHT22;1760;52.480;13.422;2024-03-02T03:20:06;10.20;99.90
3492;DHT22;1760;52.480;13.422;2024-03-02T03:22:36;10.20;99.90
3492;DHT22;1760;52.480;13.422;2024-03-02T03:25:03;10.20;99.90
3492;DHT22;1760;52.480;13.422;2024-03-02T03:27:31;10.20;99.90
3492;DHT22;1760;52.480;13.422;2024-03-02T03:29:57;10.20;99.90
3492;DHT22;1760;52.480;13.422;2024-03-02T03:32:24;10.20;99.90
3492;DHT22;1760;52.480;13.422;2024-03-02T03:34:51;10.20;99.90
3492;DHT22;1760;52.480;13.422;2024-03-02T03:37:19;10.30;99.90
3492;DHT22;1760;52.480;13.422;2024-03-02T03:39:46;10.30;99.90
3492;DHT22;1760;52.480;13.422;2024-03-02T03:42:13;10.30;99.90
3492;DHT22;1760;52.480;13.422;2024-03-02T03:44:40;10.30;99.90
3492;DHT22;1760;52.480;13.422;2024-03-02T03:47:07;10.30;99.90
3492;DHT22;1760;52.480;13.422;2024-03-02T03:49:34;10.30;99.90
3492;DHT22;1760;52.480;13.422;2024-03-02T03:52:01;10.30;99.90
3492;DHT22;1760;52.480;13.422;2024-03-02T03:54:29;10.40;99.90
3492;DHT22;1760;52.480;13.422;2024-03-02T03:56:56;10.40;99.90
3492;DHT22;1760;52.480;13.422;2024-03-02T03:59:22;10.40;99.90
3492;DHT22;1760;52.480;13.422;2024-03-02T04:01:49;10.40;99.90
3492;DHT22;1760;52.480;13.422;2024-03-02T04:04:16;10.40;99.90
3492;DHT22;1760;52.480;13.422;2024-03-02T04:06:43;10.40;99.90
3492;DHT22;1760;52.480;13.422;2024-03-02T04:09:10;10.30;99.90
3492;DHT22;1760;52.480;13.422;2024-03-02T04:11:38;10.40;99.90
3492;DHT22;1760;52.480;13.422;2024-03-02T04:14:05;10.40;99.90
3492;DHT22;1760;52.480;13.422;2024-03-02T04:16:32;10.40;99.90
3492;DHT22;1760;52.480;13.422;2024-03-02T04:19:00;10.40;99.90
3492;DHT22;1760;52.480;13.422;2024-03-02T04:21:26;10.40;99.90
3492;DHT22;1760;52.480;13.422;2024-03-02T04:23:53;10.40;99.90
3492;DHT22;1760;52.480;13.422;2024-03-02T04:26:23;10.40;99.90
3492;DHT22;1760;52.480;13.422;2024-03-02T04:28:52;10.40;99.90
3492;DHT22;1760;52.480;13.422;2024-03-02T04:31:19;10.40;99.90
3492;DHT22;1760;52.480;13.422;2024-03-02T04:33:46;10.40;99.90
3492;DHT22;1760;52.480;13.422;2024-03-02T04:36:13;10.40;99.90
3492;DHT22;1760;52.480;13.422;2024-03-02T04:38:40;10.40;99.90
3492;DHT22;1760;52.480;13.422;2024-03-02T04:41:07;10.40;99.90
3492;DHT22;1760;52.480;13.422;2024-03-02T04:43:34;10.40;99.90
3492;DHT22;1760;52.480;13.422;2024-03-02T04:46:06;10.40;99.90
3492;DHT22;1760;52.480;13.422;2024-03-02T04:48:33;10.50;99.90
3492;DHT22;1760;52.480;13.422;2024-03-02T04:51:00;10.40;99.90
3492;DHT22;1760;52.480;13.422;2024-03-02T04:53:27;10.50;99.90
3492;DHT22;1760;52.480;13.422;2024-03-02T04:55:54;10.50;99.90
3492;DHT22;1760;52.480;13.422;2024-03-02T04:58:38;10.50;99.90
3492;DHT22;1760;52.480;13.422;2024-03-02T05:01:06;10.50;99.90
3492;DHT22;1760;52.480;13.422;2024-03-02T05:03:33;10.50;99.90
3492;DHT22;1760;52.480;13.422;2024-03-02T05:06:00;10.50;99.90
3492;DHT22;1760;52.480;13.422;2024-03-02T05:08:27;10.50;99.90
3492;DHT22;1760;52.480;13.422;2024-03-02T05:10:54;10.50;99.90
3492;DHT22;1760;52.480;13.422;2024-03-02T05:13:41;10.40;99.90
3492;DHT22;1760;52.480;13.422;2024-03-02T05:16:08;10.40;99.90
3492;DHT22;1760;52.480;13.422;2024-03-02T05:18:35;10.40;99.90
3492;DHT22;1760;52.480;13.422;2024-03-02T05:21:04;10.30;99.90
3492;DHT22;1760;52.480;13.422;2024-03-02T05:23:30;10.30;99.90
3492;DHT22;1760;52.480;13.422;2024-03-02T05:25:57;10.20;99.90
3492;DHT22;1760;52.480;13.422;2024-03-02T05:28:24;10.20;99.90
3492;DHT22;1760;52.480;13.422;2024-03-02T05:30:51;10.20;99.90
3492;DHT22;1760;52.480;13.422;2024-03-02T05:33:19;10.10;99.90
3492;DHT22;1760;52.480;13.422;2024-03-02T05:35:48;10.10;99.90
3492;DHT22;1760;52.480;13.422;2024-03-02T05:38:15;10.00;99.90
3492;DHT22;1760;52.480;13.422;2024-03-02T05:40:42;10.00;99.90
3492;DHT22;1760;52.480;13.422;2024-03-02T05:43:09;10.00;99.90
3492;DHT22;1760;52.480;13.422;2024-03-02T05:45:36;10.10;99.90
3492;DHT22;1760;52.480;13.422;2024-03-02T05:48:03;10.00;99.90
3492;DHT22;1760;52.480;13.422;2024-03-02T05:50:35;10.00;99.90
3492;DHT22;1760;52.480;13.422;2024-03-02T05:53:02;10.00;99.90
3492;DHT22;1760;52.480;13.422;2024-03-02T05:55:28;10.00;99.90
3492;DHT22;1760;52.480;13.422;2024-03-02T05:57:56;10.00;99.90
3492;DHT22;1760;52.480;13.422;2024-03-02T06:00:41;10.00;99.90
3492;DHT22;1760;52.480;13.422;2024-03-02T06:03:07;10.00;99.90
3492;DHT22;1760;52.480;13.422;2024-03-02T06:05:36;10.00;99.90
3492;DHT22;1760;52.480;13.422;2024-03-02T06:08:03;10.00;99.90
3492;DHT22;1760;52.480;13.422;2024-03-02T06:10:30;10.00;99.90
3492;DHT22;1760;52.480;13.422;2024-03-02T06:12:57;10.00;99.90
3492;DHT22;1760;52.480;13.422;2024-03-02T06:15:25;10.00;99.90
3492;DHT22;1760;52.480;13.422;2024-03-02T06:17:51;10.00;99.90
3492;DHT22;1760;52.480;13.422;2024-03-02T06:20:18;10.00;99.90
3492;DHT22;1760;52.480;13.422;2024-03-02T06:22:47;10.00;99.90
3492;DHT22;1760;52.480;13.422;2024-03-02T06:25:13;10.10;99.90
3492;DHT22;1760;52.480;13.422;2024-03-02T06:27:40;10.00;99.90
3492;DHT22;1760;52.480;13.422;2024-03-02T06:30:08;10.10;99.90
3492;DHT22;1760;52.480;13.422;2024-03-02T06:32:35;10.10;99.90
3492;DHT22;1760;52.480;13.422;2024-03-02T06:35:02;10.10;99.90
3492;DHT22;1760;52.480;13.422;2024-03-02T06:37:38;10.10;99.90
3492;DHT22;1760;52.480;13.422;2024-03-02T06:40:07;10.10;99.90
3492;DHT22;1760;52.480;13.422;2024-03-02T06:42:34;10.10;99.90
3492;DHT22;1760;52.480;13.422;2024-03-02T06:45:08;10.10;99.90
3492;DHT22;1760;52.480;13.422;2024-03-02T06:47:35;10.10;99.90
3492;DHT22;1760;52.480;13.422;2024-03-02T06:50:01;10.10;99.90
3492;DHT22;1760;52.480;13.422;2024-03-02T06:52:28;10.00;99.90
3492;DHT22;1760;52.480;13.422;2024-03-02T06:54:55;10.00;99.90
3492;DHT22;1760;52.480;13.422;2024-03-02T06:57:23;10.00;99.90
3492;DHT22;1760;52.480;13.422;2024-03-02T06:59:50;9.90;99.90
3492;DHT22;1760;52.480;13.422;2024-03-02T07:02:20;9.90;99.90
3492;DHT22;1760;52.480;13.422;2024-03-02T07:04:48;9.90;99.90
3492;DHT22;1760;52.480;13.422;2024-03-02T07:07:16;9.90;99.90
3492;DHT22;1760;52.480;13.422;2024-03-02T07:09:43;10.00;99.90
3492;DHT22;1760;52.480;13.422;2024-03-02T07:12:09;10.00;99.90
3492;DHT22;1760;52.480;13.422;2024-03-02T07:14:38;10.00;99.90
3492;DHT22;1760;52.480;13.422;2024-03-02T07:17:22;10.00;99.90
3492;DHT22;1760;52.480;13.422;2024-03-02T07:19:49;10.10;99.90
3492;DHT22;1760;52.480;13.422;2024-03-02T07:22:16;10.10;99.90
3492;DHT22;1760;52.480;13.422;2024-03-02T07:24:43;10.10;99.90
3492;DHT22;1760;52.480;13.422;2024-03-02T07:27:11;10.10;99.90
3492;DHT22;1760;52.480;13.422;2024-03-02T07:29:40;10.20;99.90
3492;DHT22;1760;52.480;13.422;2024-03-02T07:32:08;10.20;99.90
3492;DHT22;1760;52.480;13.422;2024-03-02T07:34:35;10.20;99.90
3492;DHT22;1760;52.480;13.422;2024-03-02T07:37:03;10.20;99.90
3492;DHT22;1760;52.480;13.422;2024-03-02T07:39:30;10.20;99.90
3492;DHT22;1760;52.480;13.422;2024-03-02T07:41:57;10.20;99.90
3492;DHT22;1760;52.480;13.422;2024-03-02T07:44:24;10.20;99.90
3492;DHT22;1760;52.480;13.422;2024-03-02T07:46:55;10.10;99.90
3492;DHT22;1760;52.480;13.422;2024-03-02T07:49:22;10.20;99.90
3492;DHT22;1760;52.480;13.422;2024-03-02T07:51:48;10.10;99.90
3492;DHT22;1760;52.480;13.422;2024-03-02T07:54:15;10.10;99.90
3492;DHT22;1760;52.480;13.422;2024-03-02T07:56:42;10.10;99.90
3492;DHT22;1760;52.480;13.422;2024-03-02T07:59:09;10.10;99.90
3492;DHT22;1760;52.480;13.422;2024-03-02T08:01:37;10.10;99.90
3492;DHT22;1760;52.480;13.422;2024-03-02T08:04:05;10.20;99.90
3492;DHT22;1760;52.480;13.422;2024-03-02T08:06:33;10.20;99.90
3492;DHT22;1760;52.480;13.422;2024-03-02T08:09:00;10.20;99.90
3492;DHT22;1760;52.480;13.422;2024-03-02T08:11:30;10.20;99.90
3492;DHT22;1760;52.480;13.422;2024-03-02T08:13:57;10.30;99.90
3492;DHT22;1760;52.480;13.422;2024-03-02T08:16:24;10.30;99.90
3492;DHT22;1760;52.480;13.422;2024-03-02T08:18:52;10.30;99.90
3492;DHT22;1760;52.480;13.422;2024-03-02T08:21:20;10.30;99.90
3492;DHT22;1760;52.480;13.422;2024-03-02T08:23:47;10.30;99.90
3492;DHT22;1760;52.480;13.422;2024-03-02T08:26:14;10.20;99.90
3492;DHT22;1760;52.480;13.422;2024-03-02T08:28:41;10.20;99.90
3492;DHT22;1760;52.480;13.422;2024-03-02T08:31:08;10.20;99.90
3492;DHT22;1760;52.480;13.422;2024-03-02T08:33:35;10.10;99.90
3492;DHT22;1760;52.480;13.422;2024-03-02T08:36:03;10.10;99.90
3492;DHT22;1760;52.480;13.422;2024-03-02T08:38:31;10.10;99.90
3492;DHT22;1760;52.480;13.422;2024-03-02T08:40:58;10.10;99.90
3492;DHT22;1760;52.480;13.422;2024-03-02T08:43:25;10.20;99.90
3492;DHT22;1760;52.480;13.422;2024-03-02T08:45:52;10.30;99.90
3492;DHT22;1760;52.480;13.422;2024-03-02T08:48:19;10.30;99.90
3492;DHT22;1760;52.480;13.422;2024-03-02T08:50:46;10.40;99.90
3492;DHT22;1760;52.480;13.422;2024-03-02T08:53:15;10.30;99.90
3492;DHT22;1760;52.480;13.422;2024-03-02T08:55:45;10.30;99.90
3492;DHT22;1760;52.480;13.422;2024-03-02T08:58:12;10.30;99.90
3492;DHT22;1760;52.480;13.422;2024-03-02T09:00:39;10.40;99.90
3492;DHT22;1760;52.480;13.422;2024-03-02T09:03:07;10.30;99.90
3492;DHT22;1760;52.480;13.422;2024-03-02T09:05:34;10.30;99.90
3492;DHT22;1760;52.480;13.422;2024-03-02T09:08:00;10.40;99.90
3492;DHT22;1760;52.480;13.422;2024-03-02T09:10:29;10.50;99.90
3492;DHT22;1760;52.480;13.422;2024-03-02T09:12:57;10.50;99.90
3492;DHT22;1760;52.480;13.422;2024-03-02T09:15:25;10.60;99.90
3492;DHT22;1760;52.480;13.422;2024-03-02T09:17:52;10.60;99.90
3492;DHT22;1760;52.480;13.422;2024-03-02T09:20:18;10.60;99.90
3492;DHT22;1760;52.480;13.422;2024-03-02T09:22:45;10.70;99.90
3492;DHT22;1760;52.480;13.422;2024-03-02T09:25:14;10.60;99.90
3492;DHT22;1760;52.480;13.422;2024-03-02T09:27:41;10.60;99.90
3492;DHT22;1760;52.480;13.422;2024-03-02T09:30:11;10.60;99.90
3492;DHT22;1760;52.480;13.422;2024-03-02T09:32:39;10.60;99.90
3492;DHT22;1760;52.480;13.422;2024-03-02T09:35:06;10.70;99.90
3492;DHT22;1760;52.480;13.422;2024-03-02T09:37:34;10.70;99.90
3492;DHT22;1760;52.480;13.422;2024-03-02T09:40:01;10.70;99.90
3492;DHT22;1760;52.480;13.422;2024-03-02T09:42:29;10.70;99.90
3492;DHT22;1760;52.480;13.422;2024-03-02T09:44:57;10.80;99.90
3492;DHT22;1760;52.480;13.422;2024-03-02T09:47:25;10.90;99.90
3492;DHT22;1760;52.480;13.422;2024-03-02T09:49:52;11.00;99.90
3492;DHT22;1760;52.480;13.422;2024-03-02T09:52:21;11.10;99.90
3492;DHT22;1760;52.480;13.422;2024-03-02T09:54:54;11.20;99.90
3492;DHT22;1760;52.480;13.422;2024-03-02T09:57:22;11.40;99.90
3492;DHT22;1760;52.480;13.422;2024-03-02T09:59:49;11.40;99.90
3492;DHT22;1760;52.480;13.422;2024-03-02T10:02:16;11.40;99.90
3492;DHT22;1760;52.480;13.422;2024-03-02T10:04:45;11.40;99.90
3492;DHT22;1760;52.480;13.422;2024-03-02T10:07:13;11.50;99.90
3492;DHT22;1760;52.480;13.422;2024-03-02T10:09:40;11.70;99.90
3492;DHT22;1760;52.480;13.422;2024-03-02T10:12:09;11.90;99.90
3492;DHT22;1760;52.480;13.422;2024-03-02T10:14:37;12.10;99.90
3492;DHT22;1760;52.480;13.422;2024-03-02T10:17:05;12.40;99.90
3492;DHT22;1760;52.480;13.422;2024-03-02T10:19:32;12.50;99.90
3492;DHT22;1760;52.480;13.422;2024-03-02T10:22:02;12.60;99.90
3492;DHT22;1760;52.480;13.422;2024-03-02T10:24:36;12.70;99.90
3492;DHT22;1760;52.480;13.422;2024-03-02T10:27:07;12.70;99.90
3492;DHT22;1760;52.480;13.422;2024-03-02T10:29:42;12.80;99.90
3492;DHT22;1760;52.480;13.422;2024-03-02T10:32:09;12.90;99.90
3492;DHT22;1760;52.480;13.422;2024-03-02T10:34:39;12.90;99.90
3492;DHT22;1760;52.480;13.422;2024-03-02T10:37:07;13.00;99.90
3492;DHT22;1760;52.480;13.422;2024-03-02T10:39:35;13.00;99.90
3492;DHT22;1760;52.480;13.422;2024-03-02T10:42:02;13.00;99.90
3492;DHT22;1760;52.480;13.422;2024-03-02T10:44:30;12.90;99.90
3492;DHT22;1760;52.480;13.422;2024-03-02T10:47:00;12.90;99.90
3492;DHT22;1760;52.480;13.422;2024-03-02T10:49:31;12.90;99.90
3492;DHT22;1760;52.480;13.422;2024-03-02T10:51:58;12.90;99.90
3492;DHT22;1760;52.480;13.422;2024-03-02T10:54:27;12.90;99.90
3492;DHT22;1760;52.480;13.422;2024-03-02T10:56:58;12.90;99.90
3492;DHT22;1760;52.480;13.422;2024-03-02T10:59:28;12.90;99.90
3492;DHT22;1760;52.480;13.422;2024-03-02T11:01:57;13.00;99.90
3492;DHT22;1760;52.480;13.422;2024-03-02T11:04:26;13.10;99.90
3492;DHT22;1760;52.480;13.422;2024-03-02T11:06:56;13.20;99.90
3492;DHT22;1760;52.480;13.422;2024-03-02T11:09:28;13.30;99.90
3492;DHT22;1760;52.480;13.422;2024-03-02T11:12:02;13.30;99.90
3492;DHT22;1760;52.480;13.422;2024-03-02T11:14:30;13.30;99.90
3492;DHT22;1760;52.480;13.422;2024-03-02T11:17:00;13.30;99.90
3492;DHT22;1760;52.480;13.422;2024-03-02T11:19:27;13.40;99.90
3492;DHT22;1760;52.480;13.422;2024-03-02T11:21:55;13.50;99.90
3492;DHT22;1760;52.480;13.422;2024-03-02T11:24:31;13.50;99.90
3492;DHT22;1760;52.480;13.422;2024-03-02T11:27:03;13.70;99.90
3492;DHT22;1760;52.480;13.422;2024-03-02T11:29:51;13.70;99.90
3492;DHT22;1760;52.480;13.422;2024-03-02T11:32:21;13.70;99.90
3492;DHT22;1760;52.480;13.422;2024-03-02T11:34:49;14.10;99.90
3492;DHT22;1760;52.480;13.422;2024-03-02T11:37:17;14.70;99.90
3492;DHT22;1760;52.480;13.422;2024-03-02T11:39:46;15.10;99.90
3492;DHT22;1760;52.480;13.422;2024-03-02T11:42:14;15.60;99.90
3492;DHT22;1760;52.480;13.422;2024-03-02T11:44:43;15.70;99.90
3492;DHT22;1760;52.480;13.422;2024-03-02T11:47:12;15.60;99.90
3492;DHT22;1760;52.480;13.422;2024-03-02T11:49:43;15.40;99.90
3492;DHT22;1760;52.480;13.422;2024-03-02T11:52:12;15.20;99.90
3492;DHT22;1760;52.480;13.422;2024-03-02T11:54:40;15.00;99.90
3492;DHT22;1760;52.480;13.422;2024-03-02T11:57:14;14.80;99.90
3492;DHT22;1760;52.480;13.422;2024-03-02T11:59:41;14.50;99.90
3492;DHT22;1760;52.480;13.422;2024-03-02T12:02:17;14.40;99.90
3492;DHT22;1760;52.480;13.422;2024-03-02T12:04:45;14.30;99.90
3492;DHT22;1760;52.480;13.422;2024-03-02T12:07:18;14.30;99.90
3492;DHT22;1760;52.480;13.422;2024-03-02T12:09:46;14.40;99.90
3492;DHT22;1760;52.480;13.422;2024-03-02T12:12:14;14.50;99.90
3492;DHT22;1760;52.480;13.422;2024-03-02T12:14:50;14.40;99.90
3492;DHT22;1760;52.480;13.422;2024-03-02T12:17:17;14.40;99.90
3492;DHT22;1760;52.480;13.422;2024-03-02T12:19:44;14.30;99.90
3492;DHT22;1760;52.480;13.422;2024-03-02T12:22:11;14.10;99.90
3492;DHT22;1760;52.480;13.422;2024-03-02T12:24:38;14.10;99.90
3492;DHT22;1760;52.480;13.422;2024-03-02T12:27:05;14.10;99.90
3492;DHT22;1760;52.480;13.422;2024-03-02T12:29:34;14.10;99.90
3492;DHT22;1760;52.480;13.422;2024-03-02T12:32:01;14.00;99.90
3492;DHT22;1760;52.480;13.422;2024-03-02T12:34:28;14.10;99.90
3492;DHT22;1760;52.480;13.422;2024-03-02T12:36:55;14.10;99.90
3492;DHT22;1760;52.480;13.422;2024-03-02T12:39:22;14.30;99.90
3492;DHT22;1760;52.480;13.422;2024-03-02T12:41:50;14.40;99.90
3492;DHT22;1760;52.480;13.422;2024-03-02T12:44:17;14.50;99.90
3492;DHT22;1760;52.480;13.422;2024-03-02T12:46:46;14.70;99.90
3492;DHT22;1760;52.480;13.422;2024-03-02T12:49:14;14.80;99.90
3492;DHT22;1760;52.480;13.422;2024-03-02T12:51:42;14.90;99.90
3492;DHT22;1760;52.480;13.422;2024-03-02T12:54:10;14.90;99.90
3492;DHT22;1760;52.480;13.422;2024-03-02T12:56:53;14.90;99.90
3492;DHT22;1760;52.480;13.422;2024-03-02T12:59:23;14.90;99.90
3492;DHT22;1760;52.480;13.422;2024-03-02T13:01:54;15.10;99.90
3492;DHT22;1760;52.480;13.422;2024-03-02T13:04:23;15.30;99.90
3492;DHT22;1760;52.480;13.422;2024-03-02T13:06:51;15.50;99.90
3492;DHT22;1760;52.480;13.422;2024-03-02T13:09:18;15.60;99.90
3492;DHT22;1760;52.480;13.422;2024-03-02T13:11:46;15.60;99.90
3492;DHT22;1760;52.480;13.422;2024-03-02T13:14:13;15.80;99.90
3492;DHT22;1760;52.480;13.422;2024-03-02T13:16:40;15.80;99.90
3492;DHT22;1760;52.480;13.422;2024-03-02T13:19:09;15.70;99.90
3492;DHT22;1760;52.480;13.422;2024-03-02T13:21:36;15.70;99.90
3492;DHT22;1760;52.480;13.422;2024-03-02T13:24:03;15.80;99.90
3492;DHT22;1760;52.480;13.422;2024-03-02T13:26:30;15.80;99.90
3492;DHT22;1760;52.480;13.422;2024-03-02T13:28:57;15.80;99.90
3492;DHT22;1760;52.480;13.422;2024-03-02T13:31:24;15.70;99.90
3492;DHT22;1760;52.480;13.422;2024-03-02T13:33:51;15.60;99.90
3492;DHT22;1760;52.480;13.422;2024-03-02T13:36:19;15.40;99.90
3492;DHT22;1760;52.480;13.422;2024-03-02T13:38:46;15.60;99.90
3492;DHT22;1760;52.480;13.422;2024-03-02T13:41:13;15.60;99.90
3492;DHT22;1760;52.480;13.422;2024-03-02T13:43:39;15.60;99.90
3492;DHT22;1760;52.480;13.422;2024-03-02T13:46:07;15.60;99.90
3492;DHT22;1760;52.480;13.422;2024-03-02T13:48:35;15.60;99.90
3492;DHT22;1760;52.480;13.422;2024-03-02T13:51:02;15.60;99.90
3492;DHT22;1760;52.480;13.422;2024-03-02T13:53:31;15.70;99.90
3492;DHT22;1760;52.480;13.422;2024-03-02T13:55:58;15.60;99.90
3492;DHT22;1760;52.480;13.422;2024-03-02T13:58:24;15.70;99.90
3492;DHT22;1760;52.480;13.422;2024-03-02T14:00:52;15.60;99.90
3492;DHT22;1760;52.480;13.422;2024-03-02T14:03:19;15.70;99.90
3492;DHT22;1760;52.480;13.422;2024-03-02T14:05:46;15.70;99.90
3492;DHT22;1760;52.480;13.422;2024-03-02T14:08:14;15.70;99.90
3492;DHT22;1760;52.480;13.422;2024-03-02T14:10:42;15.80;99.90
3492;DHT22;1760;52.480;13.422;2024-03-02T14:13:09;15.70;99.90
3492;DHT22;1760;52.480;13.422;2024-03-02T14:15:36;15.60;99.90
3492;DHT22;1760;52.480;13.422;2024-03-02T14:18:05;15.50;99.90
3492;DHT22;1760;52.480;13.422;2024-03-02T14:20:32;15.50;99.90
3492;DHT22;1760;52.480;13.422;2024-03-02T14:22:59;15.50;99.90
3492;DHT22;1760;52.480;13.422;2024-03-02T14:25:26;15.50;99.90
3492;DHT22;1760;52.480;13.422;2024-03-02T14:27:57;15.40;99.90
3492;DHT22;1760;52.480;13.422;2024-03-02T14:30:24;15.40;99.90
3492;DHT22;1760;52.480;13.422;2024-03-02T14:32:51;15.30;99.90
3492;DHT22;1760;52.480;13.422;2024-03-02T14:35:18;15.30;99.90
3492;DHT22;1760;52.480;13.422;2024-03-02T14:37:45;15.20;99.90
3492;DHT22;1760;52.480;13.422;2024-03-02T14:40:12;15.20;99.90
3492;DHT22;1760;52.480;13.422;2024-03-02T14:42:39;15.20;99.90
3492;DHT22;1760;52.480;13.422;2024-03-02T14:45:09;15.30;99.90
3492;DHT22;1760;52.480;13.422;2024-03-02T14:47:36;15.20;99.90
3492;DHT22;1760;52.480;13.422;2024-03-02T14:50:03;15.10;99.90
3492;DHT22;1760;52.480;13.422;2024-03-02T14:52:31;15.10;99.90
3492;DHT22;1760;52.480;13.422;2024-03-02T14:54:58;15.00;99.90
3492;DHT22;1760;52.480;13.422;2024-03-02T14:57:25;14.90;99.90
3492;DHT22;1760;52.480;13.422;2024-03-02T14:59:52;14.80;99.90
3492;DHT22;1760;52.480;13.422;2024-03-02T15:02:21;14.70;99.90
3492;DHT22;1760;52.480;13.422;2024-03-02T15:04:48;14.70;99.90
3492;DHT22;1760;52.480;13.422;2024-03-02T15:07:15;14.60;99.90
3492;DHT22;1760;52.480;13.422;2024-03-02T15:09:42;14.60;99.90
3492;DHT22;1760;52.480;13.422;2024-03-02T15:12:10;14.50;99.90
3492;DHT22;1760;52.480;13.422;2024-03-02T15:14:38;14.50;99.90
3492;DHT22;1760;52.480;13.422;2024-03-02T15:17:11;14.50;99.90
3492;DHT22;1760;52.480;13.422;2024-03-02T15:19:42;14.50;99.90
3492;DHT22;1760;52.480;13.422;2024-03-02T15:22:09;14.40;99.90
3492;DHT22;1760;52.480;13.422;2024-03-02T15:24:36;14.40;99.90
3492;DHT22;1760;52.480;13.422;2024-03-02T15:27:03;14.50;99.90
3492;DHT22;1760;52.480;13.422;2024-03-02T15:29:31;14.40;99.90
3492;DHT22;1760;52.480;13.422;2024-03-02T15:31:58;14.40;99.90
3492;DHT22;1760;52.480;13.422;2024-03-02T15:34:26;14.40;99.90
3492;DHT22;1760;52.480;13.422;2024-03-02T15:36:54;14.40;99.90
3492;DHT22;1760;52.480;13.422;2024-03-02T15:39:21;14.40;99.90
3492;DHT22;1760;52.480;13.422;2024-03-02T15:41:48;14.40;99.90
3492;DHT22;1760;52.480;13.422;2024-03-02T15:44:16;14.40;99.90
3492;DHT22;1760;52.480;13.422;2024-03-02T15:46:43;14.30;99.90
3492;DHT22;1760;52.480;13.422;2024-03-02T15:49:10;14.30;99.90
3492;DHT22;1760;52.480;13.422;2024-03-02T15:51:37;14.20;99.90
3492;DHT22;1760;52.480;13.422;2024-03-02T15:54:08;14.20;99.90
3492;DHT22;1760;52.480;13.422;2024-03-02T15:56:34;14.20;99.90
3492;DHT22;1760;52.480;13.422;2024-03-02T15:59:01;14.20;99.90
3492;DHT22;1760;52.480;13.422;2024-03-02T16:01:30;14.20;99.90
3492;DHT22;1760;52.480;13.422;2024-03-02T16:03:57;14.10;99.90
3492;DHT22;1760;52.480;13.422;2024-03-02T16:06:24;14.00;99.90